createdAt,value
2023-04-30T00:02:20.975Z,8.00
2023-04-30T00:04:48.023Z,8.00
2023-04-30T00:07:14.878Z,8.00
2023-04-30T00:09:41.817Z,8.00
2023-04-30T00:12:08.794Z,8.00
2023-04-30T00:14:36.559Z,8.00
2023-04-30T00:17:03.522Z,7.90
2023-04-30T00:19:30.616Z,7.90
2023-04-30T00:21:57.571Z,7.90
2023-04-30T00:24:24.464Z,7.80
2023-04-30T00:26:51.355Z,7.90
2023-04-30T00:29:18.226Z,7.80
2023-04-30T00:31:45.314Z,7.90
2023-04-30T00:34:12.230Z,7.80
2023-04-30T00:36:40.530Z,7.80
2023-04-30T00:39:07.564Z,7.70
2023-04-30T00:41:36.303Z,7.70
2023-04-30T00:44:03.298Z,7.70
2023-04-30T00:46:30.952Z,7.60
2023-04-30T00:48:58.308Z,7.60
2023-04-30T00:51:26.852Z,7.60
2023-04-30T00:53:54.134Z,7.50
2023-04-30T00:56:21.251Z,7.40
2023-04-30T00:58:51.081Z,7.40
2023-04-30T01:01:19.033Z,7.40
2023-04-30T01:03:46.603Z,7.30
2023-04-30T01:06:13.503Z,7.30
2023-04-30T01:08:40.735Z,7.30
2023-04-30T01:11:31.903Z,7.20
2023-04-30T01:14:12.301Z,7.10
2023-04-30T01:17:10.974Z,7.00
2023-04-30T01:19:46.246Z,7.00
2023-04-30T01:22:28.421Z,7.00
2023-04-30T01:25:39.527Z,6.90
2023-04-30T01:28:19.492Z,6.90
2023-04-30T01:30:47.604Z,6.70
2023-04-30T01:33:14.921Z,6.70
2023-04-30T01:35:56.205Z,6.60
2023-04-30T01:38:37.368Z,6.60
2023-04-30T01:41:40.373Z,6.50
2023-04-30T01:44:24.443Z,6.50
2023-04-30T01:47:03.718Z,6.40
2023-04-30T01:49:53.863Z,6.50
2023-04-30T01:52:46.313Z,6.40
2023-04-30T01:55:51.984Z,6.30
2023-04-30T01:58:22.587Z,6.30
2023-04-30T02:00:49.507Z,6.30
2023-04-30T02:03:16.478Z,6.30
2023-04-30T02:05:43.465Z,6.20
2023-04-30T02:08:10.432Z,6.20
2023-04-30T02:10:37.308Z,6.20
2023-04-30T02:13:04.305Z,6.20
2023-04-30T02:15:31.293Z,6.20
2023-04-30T02:17:58.215Z,6.10
2023-04-30T02:20:25.082Z,6.10
2023-04-30T02:22:53.239Z,6.00
2023-04-30T02:25:20.397Z,5.90
2023-04-30T02:27:47.288Z,5.80
2023-04-30T02:30:14.165Z,5.70
2023-04-30T02:32:41.209Z,5.60
2023-04-30T02:35:08.689Z,5.70
2023-04-30T02:37:35.689Z,5.60
2023-04-30T02:40:02.571Z,5.50
2023-04-30T02:42:29.444Z,5.50
2023-04-30T02:44:56.334Z,5.50
2023-04-30T02:47:23.211Z,5.50
2023-04-30T02:49:50.083Z,5.50
2023-04-30T02:52:17.065Z,5.40
2023-04-30T02:54:44.017Z,5.40
2023-04-30T02:57:10.906Z,5.30
2023-04-30T02:59:38.746Z,5.20
2023-04-30T03:02:05.760Z,5.20
2023-04-30T03:04:32.643Z,5.20
2023-04-30T03:07:00.460Z,5.20
2023-04-30T03:09:27.461Z,5.20
2023-04-30T03:11:54.315Z,5.20
2023-04-30T03:14:21.231Z,5.10
2023-04-30T03:16:48.332Z,5.20
2023-04-30T03:19:15.307Z,5.10
2023-04-30T03:21:42.207Z,5.10
2023-04-30T03:24:09.042Z,5.10
2023-04-30T03:26:36.086Z,5.10
2023-04-30T03:29:03.087Z,5.00
2023-04-30T03:31:29.964Z,5.00
2023-04-30T03:33:56.890Z,5.00
2023-04-30T03:36:23.880Z,5.10
2023-04-30T03:38:50.762Z,5.00
2023-04-30T03:41:17.629Z,5.10
2023-04-30T03:43:45.082Z,5.20
2023-04-30T03:46:12.073Z,5.10
2023-04-30T03:48:38.964Z,5.20
2023-04-30T03:51:06.041Z,5.20
2023-04-30T03:53:32.984Z,5.20
2023-04-30T03:56:00.249Z,5.20
2023-04-30T03:58:27.175Z,5.20
2023-04-30T04:00:54.233Z,5.10
2023-04-30T04:03:22.075Z,5.00
2023-04-30T04:05:49.102Z,5.10
2023-04-30T04:08:15.950Z,5.10
2023-04-30T04:10:42.882Z,5.10
2023-04-30T04:13:09.777Z,5.10
2023-04-30T04:15:36.679Z,5.10
2023-04-30T04:18:03.875Z,5.00
2023-04-30T04:20:30.822Z,5.10
2023-04-30T04:22:57.694Z,5.20
2023-04-30T04:25:25.387Z,5.10
2023-04-30T04:27:52.566Z,5.20
2023-04-30T04:30:20.370Z,5.20
2023-04-30T04:32:49.404Z,5.20
2023-04-30T04:35:18.897Z,5.20
2023-04-30T04:37:45.831Z,5.20
2023-04-30T04:40:13.556Z,5.30
2023-04-30T04:42:40.589Z,5.40
2023-04-30T04:45:08.561Z,5.40
2023-04-30T04:47:35.671Z,5.50
2023-04-30T04:50:03.100Z,5.50
2023-04-30T04:52:30.019Z,5.60
2023-04-30T04:54:56.949Z,5.60
2023-04-30T04:57:23.911Z,5.80
2023-04-30T04:59:50.893Z,5.90
2023-04-30T05:02:17.841Z,5.90
2023-04-30T05:04:46.893Z,6.10
2023-04-30T05:07:13.819Z,6.20
2023-04-30T05:09:40.797Z,6.30
2023-04-30T05:12:07.680Z,6.30
2023-04-30T05:14:34.532Z,6.50
2023-04-30T05:17:01.457Z,6.50
2023-04-30T05:19:28.390Z,6.70
2023-04-30T05:21:55.430Z,6.90
2023-04-30T05:24:22.413Z,7.10
2023-04-30T05:26:49.361Z,7.20
2023-04-30T05:29:16.255Z,7.30
2023-04-30T05:31:43.161Z,7.50
2023-04-30T05:34:10.081Z,7.60
2023-04-30T05:36:37.734Z,7.70
2023-04-30T05:39:04.713Z,7.90
2023-04-30T05:41:31.585Z,8.00
2023-04-30T05:43:58.494Z,8.20
2023-04-30T05:46:25.490Z,8.40
2023-04-30T05:48:52.457Z,8.40
2023-04-30T05:51:19.436Z,8.60
2023-04-30T05:53:46.345Z,8.80
2023-04-30T05:56:13.417Z,8.90
2023-04-30T05:58:40.741Z,8.80
2023-04-30T06:01:10.965Z,8.80
2023-04-30T06:03:38.411Z,8.90
2023-04-30T06:06:05.597Z,8.90
2023-04-30T06:08:32.535Z,9.00
2023-04-30T06:10:59.604Z,9.10
2023-04-30T06:13:26.694Z,9.30
2023-04-30T06:15:53.586Z,9.30
2023-04-30T06:18:20.681Z,9.30
2023-04-30T06:20:47.583Z,9.40
2023-04-30T06:23:14.543Z,9.80
2023-04-30T06:25:41.538Z,9.90
2023-04-30T06:28:10.014Z,10.20
2023-04-30T06:30:37.468Z,10.10
2023-04-30T06:33:05.062Z,10.00
2023-04-30T06:35:32.004Z,10.00
2023-04-30T06:37:58.928Z,9.90
2023-04-30T06:40:25.962Z,10.20
2023-04-30T06:42:54.498Z,10.00
2023-04-30T06:45:21.807Z,10.20
2023-04-30T06:47:49.192Z,10.30
2023-04-30T06:50:16.191Z,10.70
2023-04-30T06:52:43.655Z,10.70
2023-04-30T06:55:11.111Z,11.10
2023-04-30T06:57:37.988Z,11.20
2023-04-30T07:00:07.596Z,11.30
2023-04-30T07:02:34.832Z,11.50
2023-04-30T07:05:01.814Z,11.60
2023-04-30T07:07:28.989Z,11.50
2023-04-30T07:09:56.323Z,11.40
2023-04-30T07:12:23.981Z,11.40
2023-04-30T07:14:50.983Z,11.50
2023-04-30T07:17:18.247Z,11.70
2023-04-30T07:19:46.075Z,12.00
2023-04-30T07:22:13.471Z,12.30
2023-04-30T07:24:40.512Z,12.20
2023-04-30T07:27:07.516Z,12.40
2023-04-30T07:29:35.204Z,12.40
2023-04-30T07:32:02.407Z,12.60
2023-04-30T07:34:29.640Z,12.60
2023-04-30T07:36:56.603Z,12.50
2023-04-30T07:39:25.022Z,12.20
2023-04-30T07:41:52.208Z,12.50
2023-04-30T07:44:19.269Z,12.40
2023-04-30T07:46:46.535Z,12.30
2023-04-30T07:49:14.947Z,12.30
2023-04-30T07:51:42.959Z,12.20
2023-04-30T07:54:10.715Z,12.50
2023-04-30T07:56:37.687Z,12.80
2023-04-30T07:59:05.440Z,12.90
2023-04-30T08:01:33.257Z,13.10
2023-04-30T08:04:00.914Z,13.10
2023-04-30T08:06:28.000Z,13.00
2023-04-30T08:08:55.148Z,12.90
2023-04-30T08:11:22.217Z,13.00
2023-04-30T08:13:49.351Z,13.30
2023-04-30T08:16:17.052Z,12.90
2023-04-30T08:18:45.085Z,12.70
2023-04-30T08:21:18.040Z,12.70
2023-04-30T08:23:45.530Z,13.10
2023-04-30T08:26:12.517Z,13.70
2023-04-30T08:28:39.778Z,13.90
2023-04-30T08:31:06.890Z,13.80
2023-04-30T08:33:33.948Z,13.70
2023-04-30T08:36:01.218Z,13.20
2023-04-30T08:38:30.424Z,12.90
2023-04-30T08:41:10.433Z,13.00
2023-04-30T08:43:37.780Z,13.20
2023-04-30T08:46:07.870Z,13.30
2023-04-30T08:48:35.632Z,13.50
2023-04-30T08:51:03.724Z,13.90
2023-04-30T08:53:35.534Z,13.90
2023-04-30T08:56:04.222Z,13.80
2023-04-30T08:58:31.738Z,14.00
2023-04-30T09:01:00.307Z,13.80
2023-04-30T09:03:29.131Z,13.60
2023-04-30T09:05:57.282Z,13.70
2023-04-30T09:08:50.438Z,13.90
2023-04-30T09:11:26.466Z,14.30
2023-04-30T09:13:59.451Z,14.20
2023-04-30T09:16:33.185Z,13.90
2023-04-30T09:19:00.646Z,13.80
2023-04-30T09:21:37.861Z,14.00
2023-04-30T09:24:06.579Z,14.20
2023-04-30T09:26:37.240Z,14.30
2023-04-30T09:29:08.726Z,14.20
2023-04-30T09:31:44.788Z,14.00
2023-04-30T09:34:12.091Z,14.00
2023-04-30T09:36:55.961Z,14.20
2023-04-30T09:39:24.470Z,14.70
2023-04-30T09:41:52.272Z,14.90
2023-04-30T09:44:37.287Z,14.50
2023-04-30T09:47:04.851Z,14.20
2023-04-30T09:49:32.123Z,14.40
2023-04-30T09:52:01.480Z,14.30
2023-04-30T09:54:32.753Z,14.30
2023-04-30T09:57:02.510Z,14.50
2023-04-30T09:59:39.544Z,14.60
2023-04-30T10:02:09.176Z,14.70
2023-04-30T10:04:39.402Z,14.70
2023-04-30T10:07:16.606Z,14.50
2023-04-30T10:09:58.831Z,14.70
2023-04-30T10:12:43.195Z,14.40
2023-04-30T10:15:21.116Z,14.50
2023-04-30T10:17:55.774Z,14.40
2023-04-30T10:20:26.462Z,14.40
2023-04-30T10:22:54.448Z,14.60
2023-04-30T10:25:23.062Z,14.70
2023-04-30T10:27:51.372Z,14.70
2023-04-30T10:30:19.026Z,14.80
2023-04-30T10:33:16.897Z,14.80
2023-04-30T10:36:00.941Z,15.00
2023-04-30T10:38:32.544Z,15.10
2023-04-30T10:41:02.043Z,15.00
2023-04-30T10:43:33.405Z,14.80
2023-04-30T10:46:00.735Z,15.00
2023-04-30T10:48:28.440Z,15.00
2023-04-30T10:50:59.504Z,14.90
2023-04-30T10:53:31.335Z,14.90
2023-04-30T10:56:07.497Z,14.70
2023-04-30T10:58:38.683Z,14.90
2023-04-30T11:01:17.438Z,14.80
2023-04-30T11:04:10.061Z,14.60
2023-04-30T11:06:53.972Z,14.90
2023-04-30T11:09:36.537Z,15.00
2023-04-30T11:12:28.884Z,15.10
2023-04-30T11:15:08.175Z,15.30
2023-04-30T11:17:35.356Z,15.10
2023-04-30T11:20:03.485Z,15.40
2023-04-30T11:22:36.959Z,15.70
2023-04-30T11:25:10.112Z,15.60
2023-04-30T11:27:38.560Z,15.50
2023-04-30T11:30:18.313Z,15.40
2023-04-30T11:32:49.649Z,15.60
2023-04-30T11:35:19.719Z,15.30
2023-04-30T11:37:48.967Z,15.50
2023-04-30T11:40:15.998Z,15.40
2023-04-30T11:42:46.107Z,15.40
2023-04-30T11:45:23.582Z,15.10
2023-04-30T11:47:53.916Z,15.10
2023-04-30T11:50:29.356Z,15.40
2023-04-30T11:52:59.242Z,15.90
2023-04-30T11:55:27.974Z,16.10
2023-04-30T11:57:58.731Z,15.90
2023-04-30T12:00:33.225Z,15.90
2023-04-30T12:03:03.898Z,15.70
2023-04-30T12:05:31.257Z,15.80
2023-04-30T12:08:09.024Z,15.90
2023-04-30T12:10:37.073Z,15.80
2023-04-30T12:13:03.998Z,15.50
2023-04-30T12:15:30.945Z,15.30
2023-04-30T12:18:13.329Z,15.40
2023-04-30T12:20:41.960Z,15.30
2023-04-30T12:23:09.467Z,15.40
2023-04-30T12:25:43.856Z,15.60
2023-04-30T12:28:12.007Z,15.60
2023-04-30T12:30:38.994Z,15.50
2023-04-30T12:33:06.232Z,15.30
2023-04-30T12:35:33.283Z,15.40
2023-04-30T12:38:09.626Z,15.40
2023-04-30T12:40:38.274Z,15.50
2023-04-30T12:43:08.583Z,15.20
2023-04-30T12:45:55.977Z,15.00
2023-04-30T12:48:25.410Z,15.10
2023-04-30T12:51:06.749Z,14.80
2023-04-30T12:53:33.839Z,14.80
2023-04-30T12:56:19.806Z,14.70
2023-04-30T12:58:50.766Z,15.00
2023-04-30T13:01:24.348Z,15.00
2023-04-30T13:03:53.660Z,14.80
2023-04-30T13:06:23.527Z,14.70
2023-04-30T13:11:24.340Z,14.80
2023-04-30T13:13:51.815Z,14.70
2023-04-30T13:16:18.779Z,14.70
2023-04-30T13:18:46.023Z,14.70
2023-04-30T13:21:13.173Z,14.60
2023-04-30T13:23:51.142Z,14.50
2023-04-30T13:26:21.317Z,14.70
2023-04-30T13:28:48.390Z,14.70
2023-04-30T13:31:15.351Z,14.70
2023-04-30T13:33:42.385Z,14.40
2023-04-30T13:36:09.537Z,14.40
2023-04-30T13:38:36.487Z,14.40
2023-04-30T13:41:03.667Z,14.60
2023-04-30T13:43:31.322Z,14.80
2023-04-30T13:46:01.903Z,14.90
2023-04-30T13:48:29.059Z,14.80
2023-04-30T13:50:57.319Z,14.60
2023-04-30T13:53:24.270Z,14.60
2023-04-30T13:55:51.255Z,14.80
2023-04-30T13:58:18.234Z,14.70
2023-04-30T14:00:45.338Z,14.70
2023-04-30T14:03:12.765Z,14.50
2023-04-30T14:05:40.079Z,14.50
2023-04-30T14:08:07.060Z,14.80
2023-04-30T14:10:33.956Z,15.00
2023-04-30T14:13:00.912Z,15.20
2023-04-30T14:15:30.600Z,15.20
2023-04-30T14:17:57.919Z,15.00
2023-04-30T14:20:25.727Z,14.70
2023-04-30T14:22:53.063Z,14.80
2023-04-30T14:25:20.385Z,14.80
2023-04-30T14:27:47.709Z,15.00
2023-04-30T14:30:15.637Z,14.90
2023-04-30T14:32:42.622Z,14.60
2023-04-30T14:35:10.121Z,14.70
2023-04-30T14:37:37.071Z,14.80
2023-04-30T14:40:06.928Z,14.70
2023-04-30T14:42:33.920Z,14.70
2023-04-30T14:45:00.985Z,14.80
2023-04-30T14:47:28.871Z,14.90
2023-04-30T14:49:57.414Z,14.90
2023-04-30T14:52:25.063Z,14.80
2023-04-30T14:54:52.071Z,14.90
2023-04-30T14:57:19.222Z,14.60
2023-04-30T14:59:47.036Z,14.50
2023-04-30T15:02:15.360Z,14.70
2023-04-30T15:04:46.100Z,14.60
2023-04-30T15:07:13.406Z,14.60
2023-04-30T15:09:40.344Z,14.60
2023-04-30T15:12:07.385Z,14.60
2023-04-30T15:14:34.361Z,14.50
2023-04-30T15:17:03.518Z,14.70
2023-04-30T15:19:31.274Z,14.60
2023-04-30T15:22:00.491Z,14.70
2023-04-30T15:24:27.664Z,14.70
2023-04-30T15:26:55.337Z,14.80
2023-04-30T15:29:22.472Z,14.80
2023-04-30T15:31:52.492Z,14.90
2023-04-30T15:34:22.108Z,14.90
2023-04-30T15:36:51.663Z,14.80
2023-04-30T15:39:19.167Z,14.60
2023-04-30T15:41:46.176Z,14.60
2023-04-30T15:44:13.112Z,14.60
2023-04-30T15:46:40.161Z,14.30
2023-04-30T15:49:07.127Z,14.20
2023-04-30T15:51:35.714Z,14.30
2023-04-30T15:54:03.201Z,14.20
2023-04-30T15:56:31.778Z,14.10
2023-04-30T15:58:58.793Z,14.10
2023-04-30T16:01:26.009Z,14.00
2023-04-30T16:03:53.162Z,13.90
2023-04-30T16:06:20.734Z,13.80
2023-04-30T16:08:49.853Z,13.90
2023-04-30T16:11:17.530Z,13.90
2023-04-30T16:13:47.267Z,13.80
2023-04-30T16:16:14.786Z,13.50
2023-04-30T16:18:42.151Z,13.40
2023-04-30T16:21:10.252Z,13.40
2023-04-30T16:23:38.109Z,13.40
2023-04-30T16:26:05.047Z,13.40
2023-04-30T16:28:32.035Z,13.30
2023-04-30T16:30:59.054Z,13.30
2023-04-30T16:33:26.063Z,13.20
2023-04-30T16:35:56.797Z,13.10
2023-04-30T16:38:23.954Z,13.00
2023-04-30T16:40:51.006Z,13.00
2023-04-30T16:43:18.068Z,13.10
2023-04-30T16:45:47.100Z,13.20
2023-04-30T16:48:14.224Z,13.10
2023-04-30T16:50:42.406Z,13.10
2023-04-30T16:53:11.074Z,13.00
2023-04-30T16:55:38.093Z,13.00
2023-04-30T16:58:05.005Z,12.70
2023-04-30T17:00:31.969Z,12.70
2023-04-30T17:02:58.931Z,12.60
2023-04-30T17:05:26.254Z,12.40
2023-04-30T17:07:53.210Z,12.40
2023-04-30T17:10:21.783Z,12.30
2023-04-30T17:12:48.809Z,12.20
2023-04-30T17:15:15.776Z,12.20
2023-04-30T17:17:42.929Z,12.20
2023-04-30T17:20:11.046Z,12.10
2023-04-30T17:22:38.365Z,12.00
2023-04-30T17:25:05.775Z,12.00
2023-04-30T17:27:32.967Z,11.90
2023-04-30T17:30:00.123Z,11.80
2023-04-30T17:32:27.905Z,11.80
2023-04-30T17:34:56.247Z,11.80
2023-04-30T17:37:23.527Z,11.70
2023-04-30T17:39:50.811Z,11.60
2023-04-30T17:42:18.734Z,11.50
2023-04-30T17:44:46.040Z,11.50
2023-04-30T17:47:16.195Z,11.50
2023-04-30T17:49:44.741Z,11.40
2023-04-30T17:52:12.378Z,11.40
2023-04-30T17:54:40.968Z,11.20
2023-04-30T17:57:15.698Z,11.20
2023-04-30T17:59:43.109Z,11.20
2023-04-30T18:02:12.025Z,11.10
2023-04-30T18:04:39.372Z,11.10
2023-04-30T18:07:08.712Z,11.00
2023-04-30T18:09:36.172Z,11.00
2023-04-30T18:12:04.027Z,10.90
2023-04-30T18:14:32.702Z,10.80
2023-04-30T18:17:00.645Z,10.80
2023-04-30T18:19:27.908Z,10.80
2023-04-30T18:21:59.630Z,10.70
2023-04-30T18:24:28.772Z,10.70
2023-04-30T18:26:56.547Z,10.60
2023-04-30T18:29:24.835Z,10.60
2023-04-30T18:31:52.162Z,10.60
2023-04-30T18:34:19.446Z,10.60
2023-04-30T18:36:46.925Z,10.60
2023-04-30T18:39:16.934Z,10.60
2023-04-30T18:41:45.260Z,10.60
2023-04-30T18:44:15.980Z,10.50
2023-04-30T18:46:43.322Z,10.50
2023-04-30T18:49:13.214Z,10.30
2023-04-30T18:51:40.480Z,10.20
2023-04-30T18:54:09.386Z,10.10
2023-04-30T18:56:37.199Z,10.00
2023-04-30T18:59:05.695Z,10.00
2023-04-30T19:01:33.053Z,9.90
2023-04-30T19:04:02.708Z,9.90
2023-04-30T19:06:33.105Z,9.90
2023-04-30T19:09:01.081Z,9.90
2023-04-30T19:11:28.800Z,9.90
2023-04-30T19:13:56.092Z,9.80
2023-04-30T19:16:23.521Z,9.60
2023-04-30T19:18:50.867Z,9.50
2023-04-30T19:21:19.371Z,9.50
2023-04-30T19:23:46.654Z,9.50
2023-04-30T19:26:17.566Z,9.50
2023-04-30T19:28:45.802Z,9.50
2023-04-30T19:31:13.864Z,9.40
2023-04-30T19:33:44.165Z,9.40
2023-04-30T19:36:14.025Z,9.30
2023-04-30T19:38:42.570Z,9.30
2023-04-30T19:41:10.183Z,9.20
2023-04-30T19:43:40.041Z,9.10
2023-04-30T19:46:10.611Z,9.10
2023-04-30T19:48:38.532Z,9.00
2023-04-30T19:51:07.226Z,8.90
2023-04-30T19:53:34.599Z,8.80
2023-04-30T19:56:01.844Z,8.60
2023-04-30T19:58:29.418Z,8.50
2023-04-30T20:01:00.348Z,8.30
2023-04-30T20:03:29.271Z,8.30
2023-04-30T20:05:57.038Z,8.20
2023-04-30T20:08:26.406Z,8.10
2023-04-30T20:10:55.110Z,8.10
2023-04-30T20:13:24.763Z,8.00
2023-04-30T20:15:54.368Z,7.90
2023-04-30T20:18:24.173Z,7.80
2023-04-30T20:20:56.657Z,7.70
2023-04-30T20:23:29.565Z,7.60
2023-04-30T20:26:00.293Z,7.60
2023-04-30T20:28:28.305Z,7.50
2023-04-30T20:30:57.596Z,7.40
2023-04-30T20:33:28.964Z,7.40
2023-04-30T20:35:58.393Z,7.40
2023-04-30T20:38:27.616Z,7.40
2023-04-30T20:43:40.654Z,7.30
2023-04-30T20:46:08.116Z,7.20
2023-04-30T20:48:35.801Z,7.20
2023-04-30T20:51:06.031Z,7.10
2023-04-30T20:53:33.305Z,7.00
2023-04-30T20:56:01.687Z,7.00
2023-04-30T20:58:30.374Z,7.00
2023-04-30T21:00:59.270Z,7.00
2023-04-30T21:03:29.643Z,7.00
2023-04-30T21:05:59.661Z,7.00
2023-04-30T21:08:29.998Z,7.00
2023-04-30T21:10:57.639Z,6.90
2023-04-30T21:13:25.126Z,6.90
2023-04-30T21:15:53.925Z,6.90
2023-04-30T21:18:21.319Z,6.80
2023-04-30T21:20:50.301Z,6.80
2023-04-30T21:23:19.271Z,6.70
2023-04-30T21:25:48.469Z,6.70
2023-04-30T21:28:15.837Z,6.70
2023-04-30T21:30:43.417Z,6.70
2023-04-30T21:33:11.956Z,6.60
2023-04-30T21:35:42.267Z,6.60
2023-04-30T21:38:11.769Z,6.60
2023-04-30T21:40:39.066Z,6.60
2023-04-30T21:43:06.520Z,6.50
2023-04-30T21:45:34.887Z,6.50
2023-04-30T21:48:02.527Z,6.50
2023-04-30T21:50:33.430Z,6.60
2023-04-30T21:53:01.200Z,6.70
2023-04-30T21:55:28.204Z,6.70
2023-04-30T21:57:55.297Z,6.50
2023-04-30T22:00:22.584Z,6.40
2023-04-30T22:02:50.859Z,6.40
2023-04-30T22:05:19.831Z,6.30
2023-04-30T22:07:47.620Z,6.20
2023-04-30T22:10:18.493Z,6.20
2023-04-30T22:12:47.737Z,6.20
2023-04-30T22:15:15.334Z,6.10
2023-04-30T22:17:43.022Z,6.10
2023-04-30T22:20:10.808Z,6.00
2023-04-30T22:22:37.862Z,5.90
2023-04-30T22:25:05.690Z,5.80
2023-04-30T22:27:32.908Z,5.70
2023-04-30T22:29:59.869Z,5.70
2023-04-30T22:32:27.564Z,5.60
2023-04-30T22:34:54.562Z,5.50
2023-04-30T22:37:21.489Z,5.50
2023-04-30T22:39:48.489Z,5.50
2023-04-30T22:42:16.823Z,5.40
2023-04-30T22:44:45.372Z,5.40
2023-04-30T22:47:12.939Z,5.30
2023-04-30T22:49:39.936Z,5.30
2023-04-30T22:52:07.337Z,5.30
2023-04-30T22:54:35.360Z,5.30
2023-04-30T22:57:03.075Z,5.20
2023-04-30T22:59:30.014Z,5.20
2023-04-30T23:01:57.290Z,5.10
2023-04-30T23:04:25.749Z,5.10
2023-04-30T23:06:53.397Z,5.10
2023-04-30T23:09:20.279Z,5.10
2023-04-30T23:11:48.277Z,5.10
2023-04-30T23:14:15.266Z,5.10
2023-04-30T23:16:42.776Z,5.10
2023-04-30T23:19:10.424Z,5.10
2023-04-30T23:21:37.508Z,5.10
2023-04-30T23:24:04.532Z,5.00
2023-04-30T23:26:31.696Z,5.00
2023-04-30T23:28:58.728Z,5.00
2023-04-30T23:31:25.688Z,5.00
2023-04-30T23:33:52.686Z,5.00
2023-04-30T23:36:19.629Z,5.00
2023-04-30T23:38:49.749Z,5.00
2023-04-30T23:41:16.736Z,4.80
2023-04-30T23:43:43.606Z,4.90
2023-04-30T23:46:10.755Z,4.90
2023-04-30T23:48:37.790Z,4.90
2023-04-30T23:51:05.599Z,4.90
2023-04-30T23:53:32.550Z,4.90
2023-04-30T23:55:59.682Z,5.00
2023-04-30T23:58:31.722Z,5.10
